sensor_id;sensor_type;location;lat;lon;timestamp;P1;durP1;ratioP1;P2;durP2;ratioP2
34960;SDS011;30789;52.030;7.110;2022-10-16T00:00:08;2.78;;;1.92;;
34960;SDS011;30789;52.030;7.110;2022-10-16T00:02:35;3.60;;;2.20;;
34960;SDS011;30789;52.030;7.110;2022-10-16T00:05:03;5.97;;;2.03;;
34960;SDS011;30789;52.030;7.110;2022-10-16T00:07:30;4.13;;;1.90;;
34960;SDS011;30789;52.030;7.110;2022-10-16T00:09:56;6.45;;;2.30;;
34960;SDS011;30789;52.030;7.110;2022-10-16T00:12:22;3.70;;;2.22;;
34960;SDS011;30789;52.030;7.110;2022-10-16T00:14:49;3.67;;;1.90;;
34960;SDS011;30789;52.030;7.110;2022-10-16T00:17:15;5.75;;;2.00;;
34960;SDS011;30789;52.030;7.110;2022-10-16T00:19:42;5.25;;;2.28;;
34960;SDS011;30789;52.030;7.110;2022-10-16T00:22:09;5.03;;;2.15;;
34960;SDS011;30789;52.030;7.110;2022-10-16T00:24:36;5.15;;;1.90;;
34960;SDS011;30789;52.030;7.110;2022-10-16T00:27:03;4.07;;;2.20;;
34960;SDS011;30789;52.030;7.110;2022-10-16T00:29:29;4.13;;;2.10;;
34960;SDS011;30789;52.030;7.110;2022-10-16T00:31:55;5.00;;;2.45;;
34960;SDS011;30789;52.030;7.110;2022-10-16T00:34:22;5.57;;;2.05;;
34960;SDS011;30789;52.030;7.110;2022-10-16T00:36:48;3.30;;;2.10;;
34960;SDS011;30789;52.030;7.110;2022-10-16T00:39:16;3.85;;;2.20;;
34960;SDS011;30789;52.030;7.110;2022-10-16T00:41:42;3.35;;;2.20;;
34960;SDS011;30789;52.030;7.110;2022-10-16T00:47:08;3.30;;;2.58;;
34960;SDS011;30789;52.030;7.110;2022-10-16T00:49:36;4.18;;;2.55;;
34960;SDS011;30789;52.030;7.110;2022-10-16T00:52:02;4.38;;;2.70;;
34960;SDS011;30789;52.030;7.110;2022-10-16T00:54:31;5.22;;;2.50;;
34960;SDS011;30789;52.030;7.110;2022-10-16T00:56:59;3.58;;;2.92;;
34960;SDS011;30789;52.030;7.110;2022-10-16T00:59:28;4.60;;;3.40;;
34960;SDS011;30789;52.030;7.110;2022-10-16T01:01:56;7.03;;;3.47;;
34960;SDS011;30789;52.030;7.110;2022-10-16T01:04:24;5.80;;;3.35;;
34960;SDS011;30789;52.030;7.110;2022-10-16T01:07:02;5.50;;;3.35;;
34960;SDS011;30789;52.030;7.110;2022-10-16T01:09:39;5.53;;;3.22;;
34960;SDS011;30789;52.030;7.110;2022-10-16T01:12:14;5.30;;;3.53;;
34960;SDS011;30789;52.030;7.110;2022-10-16T01:14:45;7.38;;;3.78;;
34960;SDS011;30789;52.030;7.110;2022-10-16T01:17:15;7.70;;;3.83;;
34960;SDS011;30789;52.030;7.110;2022-10-16T01:19:55;5.47;;;3.97;;
34960;SDS011;30789;52.030;7.110;2022-10-16T01:22:33;6.80;;;4.22;;
34960;SDS011;30789;52.030;7.110;2022-10-16T01:25:08;4.93;;;3.75;;
34960;SDS011;30789;52.030;7.110;2022-10-16T01:27:44;10.02;;;4.55;;
34960;SDS011;30789;52.030;7.110;2022-10-16T01:30:13;9.95;;;4.60;;
34960;SDS011;30789;52.030;7.110;2022-10-16T01:32:45;8.38;;;4.20;;
34960;SDS011;30789;52.030;7.110;2022-10-16T01:35:18;7.38;;;4.50;;
34960;SDS011;30789;52.030;7.110;2022-10-16T01:37:48;9.90;;;4.70;;
34960;SDS011;30789;52.030;7.110;2022-10-16T01:40:19;9.05;;;4.82;;
34960;SDS011;30789;52.030;7.110;2022-10-16T01:42:52;8.07;;;4.78;;
34960;SDS011;30789;52.030;7.110;2022-10-16T01:45:21;8.20;;;5.30;;
34960;SDS011;30789;52.030;7.110;2022-10-16T01:47:48;9.32;;;4.07;;
34960;SDS011;30789;52.030;7.110;2022-10-16T01:50:17;6.80;;;4.25;;
34960;SDS011;30789;52.030;7.110;2022-10-16T01:52:47;6.32;;;4.00;;
34960;SDS011;30789;52.030;7.110;2022-10-16T01:55:17;7.70;;;4.53;;
34960;SDS011;30789;52.030;7.110;2022-10-16T01:57:48;8.80;;;4.85;;
34960;SDS011;30789;52.030;7.110;2022-10-16T02:00:18;5.82;;;3.78;;
34960;SDS011;30789;52.030;7.110;2022-10-16T02:02:47;6.15;;;4.47;;
34960;SDS011;30789;52.030;7.110;2022-10-16T02:05:16;6.72;;;3.97;;
34960;SDS011;30789;52.030;7.110;2022-10-16T02:07:47;6.20;;;3.83;;
34960;SDS011;30789;52.030;7.110;2022-10-16T02:10:14;5.93;;;3.75;;
34960;SDS011;30789;52.030;7.110;2022-10-16T02:12:42;7.70;;;4.53;;
34960;SDS011;30789;52.030;7.110;2022-10-16T02:15:13;7.25;;;4.13;;
34960;SDS011;30789;52.030;7.110;2022-10-16T02:17:40;6.30;;;3.88;;
34960;SDS011;30789;52.030;7.110;2022-10-16T02:20:07;7.32;;;4.22;;
34960;SDS011;30789;52.030;7.110;2022-10-16T02:22:35;5.10;;;4.03;;
34960;SDS011;30789;52.030;7.110;2022-10-16T02:25:05;7.88;;;3.55;;
34960;SDS011;30789;52.030;7.110;2022-10-16T02:27:37;4.65;;;3.17;;
34960;SDS011;30789;52.030;7.110;2022-10-16T02:30:09;5.45;;;3.78;;
34960;SDS011;30789;52.030;7.110;2022-10-16T02:32:45;6.78;;;3.67;;
34960;SDS011;30789;52.030;7.110;2022-10-16T02:35:14;4.43;;;2.88;;
34960;SDS011;30789;52.030;7.110;2022-10-16T02:37:43;3.90;;;3.22;;
34960;SDS011;30789;52.030;7.110;2022-10-16T02:40:11;7.32;;;3.70;;
34960;SDS011;30789;52.030;7.110;2022-10-16T02:42:39;6.35;;;3.53;;
34960;SDS011;30789;52.030;7.110;2022-10-16T02:45:07;3.33;;;2.88;;
34960;SDS011;30789;52.030;7.110;2022-10-16T02:47:36;4.72;;;2.72;;
34960;SDS011;30789;52.030;7.110;2022-10-16T02:50:02;3.10;;;2.28;;
34960;SDS011;30789;52.030;7.110;2022-10-16T02:52:29;8.23;;;3.40;;
34960;SDS011;30789;52.030;7.110;2022-10-16T02:54:56;6.65;;;3.00;;
34960;SDS011;30789;52.030;7.110;2022-10-16T02:57:22;4.78;;;2.85;;
34960;SDS011;30789;52.030;7.110;2022-10-16T02:59:49;4.32;;;2.83;;
34960;SDS011;30789;52.030;7.110;2022-10-16T03:02:15;4.55;;;2.72;;
34960;SDS011;30789;52.030;7.110;2022-10-16T03:04:43;6.07;;;3.08;;
34960;SDS011;30789;52.030;7.110;2022-10-16T03:07:10;4.30;;;2.72;;
34960;SDS011;30789;52.030;7.110;2022-10-16T03:09:36;3.50;;;2.78;;
34960;SDS011;30789;52.030;7.110;2022-10-16T03:12:03;5.13;;;2.72;;
34960;SDS011;30789;52.030;7.110;2022-10-16T03:14:29;5.35;;;3.30;;
34960;SDS011;30789;52.030;7.110;2022-10-16T03:16:56;3.75;;;2.45;;
34960;SDS011;30789;52.030;7.110;2022-10-16T03:19:22;3.92;;;2.78;;
34960;SDS011;30789;52.030;7.110;2022-10-16T03:21:50;5.63;;;3.17;;
34960;SDS011;30789;52.030;7.110;2022-10-16T03:24:17;7.05;;;3.00;;
34960;SDS011;30789;52.030;7.110;2022-10-16T03:26:43;6.50;;;2.58;;
34960;SDS011;30789;52.030;7.110;2022-10-16T03:29:10;3.33;;;2.45;;
34960;SDS011;30789;52.030;7.110;2022-10-16T03:31:36;7.03;;;2.88;;
34960;SDS011;30789;52.030;7.110;2022-10-16T03:34:02;5.28;;;2.45;;
34960;SDS011;30789;52.030;7.110;2022-10-16T03:36:29;2.67;;;1.88;;
34960;SDS011;30789;52.030;7.110;2022-10-16T03:38:57;3.05;;;1.95;;
34960;SDS011;30789;52.030;7.110;2022-10-16T03:41:24;4.95;;;2.05;;
34960;SDS011;30789;52.030;7.110;2022-10-16T03:43:50;3.72;;;2.03;;
34960;SDS011;30789;52.030;7.110;2022-10-16T03:46:16;4.03;;;2.03;;
34960;SDS011;30789;52.030;7.110;2022-10-16T03:48:43;5.53;;;2.15;;
34960;SDS011;30789;52.030;7.110;2022-10-16T03:51:09;4.22;;;2.30;;
34960;SDS011;30789;52.030;7.110;2022-10-16T03:53:36;1.90;;;1.70;;
34960;SDS011;30789;52.030;7.110;2022-10-16T03:56:04;4.53;;;2.20;;
34960;SDS011;30789;52.030;7.110;2022-10-16T03:58:31;3.03;;;2.03;;
34960;SDS011;30789;52.030;7.110;2022-10-16T04:00:57;3.50;;;1.88;;
34960;SDS011;30789;52.030;7.110;2022-10-16T04:03:23;3.00;;;1.80;;
34960;SDS011;30789;52.030;7.110;2022-10-16T04:05:50;2.10;;;1.65;;
34960;SDS011;30789;52.030;7.110;2022-10-16T04:08:16;2.47;;;1.98;;
34960;SDS011;30789;52.030;7.110;2022-10-16T04:10:43;3.05;;;2.00;;
34960;SDS011;30789;52.030;7.110;2022-10-16T04:13:11;3.30;;;1.98;;
34960;SDS011;30789;52.030;7.110;2022-10-16T04:15:38;3.70;;;2.35;;
34960;SDS011;30789;52.030;7.110;2022-10-16T04:18:05;3.10;;;2.40;;
34960;SDS011;30789;52.030;7.110;2022-10-16T04:20:32;3.47;;;1.90;;
34960;SDS011;30789;52.030;7.110;2022-10-16T04:22:58;4.10;;;1.90;;
34960;SDS011;30789;52.030;7.110;2022-10-16T04:25:25;3.33;;;2.22;;
34960;SDS011;30789;52.030;7.110;2022-10-16T04:27:52;3.28;;;2.22;;
34960;SDS011;30789;52.030;7.110;2022-10-16T04:30:20;5.80;;;2.30;;
34960;SDS011;30789;52.030;7.110;2022-10-16T04:32:47;4.90;;;2.55;;
34960;SDS011;30789;52.030;7.110;2022-10-16T04:35:14;3.85;;;2.20;;
34960;SDS011;30789;52.030;7.110;2022-10-16T04:37:40;2.70;;;2.17;;
34960;SDS011;30789;52.030;7.110;2022-10-16T04:40:07;9.15;;;2.20;;
34960;SDS011;30789;52.030;7.110;2022-10-16T04:42:34;4.85;;;2.30;;
34960;SDS011;30789;52.030;7.110;2022-10-16T04:45:00;4.82;;;2.63;;
34960;SDS011;30789;52.030;7.110;2022-10-16T04:47:28;4.65;;;2.67;;
34960;SDS011;30789;52.030;7.110;2022-10-16T04:49:54;3.50;;;2.42;;
34960;SDS011;30789;52.030;7.110;2022-10-16T04:52:21;2.47;;;2.22;;
34960;SDS011;30789;52.030;7.110;2022-10-16T04:54:49;3.05;;;2.10;;
34960;SDS011;30789;52.030;7.110;2022-10-16T04:57:16;2.20;;;1.80;;
34960;SDS011;30789;52.030;7.110;2022-10-16T04:59:42;4.70;;;2.17;;
34960;SDS011;30789;52.030;7.110;2022-10-16T05:02:09;4.00;;;1.90;;
34960;SDS011;30789;52.030;7.110;2022-10-16T05:04:37;3.38;;;2.00;;
34960;SDS011;30789;52.030;7.110;2022-10-16T05:07:03;2.88;;;1.88;;
34960;SDS011;30789;52.030;7.110;2022-10-16T05:09:29;4.43;;;1.80;;
34960;SDS011;30789;52.030;7.110;2022-10-16T05:11:56;5.38;;;1.50;;
34960;SDS011;30789;52.030;7.110;2022-10-16T05:14:22;1.80;;;1.38;;
34960;SDS011;30789;52.030;7.110;2022-10-16T05:16:49;2.95;;;1.45;;
34960;SDS011;30789;52.030;7.110;2022-10-16T05:19:16;4.13;;;1.60;;
34960;SDS011;30789;52.030;7.110;2022-10-16T05:21:44;3.67;;;1.83;;
34960;SDS011;30789;52.030;7.110;2022-10-16T05:24:10;1.77;;;1.30;;
34960;SDS011;30789;52.030;7.110;2022-10-16T05:26:37;2.92;;;1.45;;
34960;SDS011;30789;52.030;7.110;2022-10-16T05:29:03;2.78;;;1.60;;
34960;SDS011;30789;52.030;7.110;2022-10-16T05:31:30;1.90;;;1.33;;
34960;SDS011;30789;52.030;7.110;2022-10-16T05:33:57;3.83;;;1.63;;
34960;SDS011;30789;52.030;7.110;2022-10-16T05:36:24;2.33;;;1.50;;
34960;SDS011;30789;52.030;7.110;2022-10-16T05:38:52;2.60;;;1.30;;
34960;SDS011;30789;52.030;7.110;2022-10-16T05:41:19;3.83;;;1.65;;
34960;SDS011;30789;52.030;7.110;2022-10-16T05:43:46;1.58;;;1.38;;
34960;SDS011;30789;52.030;7.110;2022-10-16T05:46:13;1.80;;;1.52;;
34960;SDS011;30789;52.030;7.110;2022-10-16T05:48:40;2.40;;;1.30;;
34960;SDS011;30789;52.030;7.110;2022-10-16T05:51:07;3.53;;;1.30;;
34960;SDS011;30789;52.030;7.110;2022-10-16T05:53:37;3.42;;;1.48;;
34960;SDS011;30789;52.030;7.110;2022-10-16T05:56:06;3.35;;;1.70;;
34960;SDS011;30789;52.030;7.110;2022-10-16T05:58:35;2.50;;;1.42;;
34960;SDS011;30789;52.030;7.110;2022-10-16T06:01:05;4.97;;;1.45;;
34960;SDS011;30789;52.030;7.110;2022-10-16T06:03:33;1.95;;;1.50;;
34960;SDS011;30789;52.030;7.110;2022-10-16T06:06:06;2.63;;;1.48;;
34960;SDS011;30789;52.030;7.110;2022-10-16T06:08:33;1.73;;;1.23;;
34960;SDS011;30789;52.030;7.110;2022-10-16T06:11:00;2.90;;;1.35;;
34960;SDS011;30789;52.030;7.110;2022-10-16T06:13:29;2.20;;;1.30;;
34960;SDS011;30789;52.030;7.110;2022-10-16T06:15:56;3.13;;;1.33;;
34960;SDS011;30789;52.030;7.110;2022-10-16T06:18:24;6.85;;;1.33;;
34960;SDS011;30789;52.030;7.110;2022-10-16T06:20:50;1.45;;;1.25;;
34960;SDS011;30789;52.030;7.110;2022-10-16T06:23:17;2.72;;;1.33;;
34960;SDS011;30789;52.030;7.110;2022-10-16T06:25:43;0.88;;;0.85;;
34960;SDS011;30789;52.030;7.110;2022-10-16T06:28:10;1.45;;;1.20;;
34960;SDS011;30789;52.030;7.110;2022-10-16T06:30:37;3.78;;;1.38;;
34960;SDS011;30789;52.030;7.110;2022-10-16T06:33:04;2.95;;;1.45;;
34960;SDS011;30789;52.030;7.110;2022-10-16T06:35:30;4.85;;;1.52;;
34960;SDS011;30789;52.030;7.110;2022-10-16T06:37:58;4.45;;;1.27;;
34960;SDS011;30789;52.030;7.110;2022-10-16T06:40:24;3.83;;;1.70;;
34960;SDS011;30789;52.030;7.110;2022-10-16T06:42:50;2.90;;;1.55;;
34960;SDS011;30789;52.030;7.110;2022-10-16T06:45:17;2.67;;;1.17;;
34960;SDS011;30789;52.030;7.110;2022-10-16T06:47:45;2.58;;;1.27;;
34960;SDS011;30789;52.030;7.110;2022-10-16T06:50:11;1.73;;;1.30;;
34960;SDS011;30789;52.030;7.110;2022-10-16T06:52:38;1.27;;;1.17;;
34960;SDS011;30789;52.030;7.110;2022-10-16T06:55:05;1.02;;;0.90;;
34960;SDS011;30789;52.030;7.110;2022-10-16T06:57:32;1.58;;;0.88;;
34960;SDS011;30789;52.030;7.110;2022-10-16T06:59:58;1.98;;;1.17;;
34960;SDS011;30789;52.030;7.110;2022-10-16T07:02:24;1.35;;;1.20;;
34960;SDS011;30789;52.030;7.110;2022-10-16T07:04:52;1.80;;;1.13;;
34960;SDS011;30789;52.030;7.110;2022-10-16T07:07:19;2.40;;;1.38;;
34960;SDS011;30789;52.030;7.110;2022-10-16T07:09:45;2.90;;;1.30;;
34960;SDS011;30789;52.030;7.110;2022-10-16T07:12:11;2.75;;;1.73;;
34960;SDS011;30789;52.030;7.110;2022-10-16T07:14:38;2.58;;;1.40;;
34960;SDS011;30789;52.030;7.110;2022-10-16T07:17:04;5.20;;;1.92;;
34960;SDS011;30789;52.030;7.110;2022-10-16T07:19:31;1.80;;;1.00;;
34960;SDS011;30789;52.030;7.110;2022-10-16T07:21:58;1.52;;;1.05;;
34960;SDS011;30789;52.030;7.110;2022-10-16T07:24:25;1.98;;;1.42;;
34960;SDS011;30789;52.030;7.110;2022-10-16T07:26:51;3.22;;;1.63;;
34960;SDS011;30789;52.030;7.110;2022-10-16T07:29:19;2.13;;;1.67;;
34960;SDS011;30789;52.030;7.110;2022-10-16T07:31:46;4.75;;;2.13;;
34960;SDS011;30789;52.030;7.110;2022-10-16T07:34:14;3.47;;;1.90;;
34960;SDS011;30789;52.030;7.110;2022-10-16T07:36:42;2.72;;;1.70;;
34960;SDS011;30789;52.030;7.110;2022-10-16T07:39:10;5.28;;;2.50;;
34960;SDS011;30789;52.030;7.110;2022-10-16T07:41:37;4.43;;;2.30;;
34960;SDS011;30789;52.030;7.110;2022-10-16T07:44:03;3.80;;;1.70;;
34960;SDS011;30789;52.030;7.110;2022-10-16T07:46:31;3.35;;;2.10;;
34960;SDS011;30789;52.030;7.110;2022-10-16T07:48:58;3.10;;;1.95;;
34960;SDS011;30789;52.030;7.110;2022-10-16T07:51:25;2.95;;;1.70;;
34960;SDS011;30789;52.030;7.110;2022-10-16T07:53:52;3.25;;;1.85;;
34960;SDS011;30789;52.030;7.110;2022-10-16T07:56:20;3.40;;;2.13;;
34960;SDS011;30789;52.030;7.110;2022-10-16T07:58:47;2.63;;;1.88;;
34960;SDS011;30789;52.030;7.110;2022-10-16T08:01:15;3.30;;;1.95;;
34960;SDS011;30789;52.030;7.110;2022-10-16T08:03:43;3.00;;;2.20;;
34960;SDS011;30789;52.030;7.110;2022-10-16T08:06:10;2.30;;;2.10;;
34960;SDS011;30789;52.030;7.110;2022-10-16T08:08:37;3.50;;;2.42;;
34960;SDS011;30789;52.030;7.110;2022-10-16T08:11:04;5.35;;;2.00;;
34960;SDS011;30789;52.030;7.110;2022-10-16T08:13:32;4.75;;;2.25;;
34960;SDS011;30789;52.030;7.110;2022-10-16T08:15:58;2.83;;;2.20;;
34960;SDS011;30789;52.030;7.110;2022-10-16T08:18:26;3.83;;;1.92;;
34960;SDS011;30789;52.030;7.110;2022-10-16T08:20:55;3.22;;;1.95;;
34960;SDS011;30789;52.030;7.110;2022-10-16T08:23:23;3.65;;;2.10;;
34960;SDS011;30789;52.030;7.110;2022-10-16T08:25:51;4.00;;;2.65;;
34960;SDS011;30789;52.030;7.110;2022-10-16T08:28:18;3.60;;;2.15;;
34960;SDS011;30789;52.030;7.110;2022-10-16T08:30:45;4.47;;;1.85;;
34960;SDS011;30789;52.030;7.110;2022-10-16T08:33:12;3.25;;;2.03;;
34960;SDS011;30789;52.030;7.110;2022-10-16T08:35:38;2.47;;;1.83;;
34960;SDS011;30789;52.030;7.110;2022-10-16T08:38:05;4.30;;;2.30;;
34960;SDS011;30789;52.030;7.110;2022-10-16T08:40:33;3.58;;;2.00;;
34960;SDS011;30789;52.030;7.110;2022-10-16T08:43:06;3.92;;;1.95;;
34960;SDS011;30789;52.030;7.110;2022-10-16T08:46:11;3.92;;;1.95;;
34960;SDS011;30789;52.030;7.110;2022-10-16T08:48:51;4.32;;;1.50;;
34960;SDS011;30789;52.030;7.110;2022-10-16T08:51:19;3.78;;;1.90;;
34960;SDS011;30789;52.030;7.110;2022-10-16T08:53:51;2.03;;;1.60;;
34960;SDS011;30789;52.030;7.110;2022-10-16T08:56:20;3.50;;;1.48;;
34960;SDS011;30789;52.030;7.110;2022-10-16T08:58:47;2.03;;;1.50;;
34960;SDS011;30789;52.030;7.110;2022-10-16T09:01:16;2.55;;;1.67;;
34960;SDS011;30789;52.030;7.110;2022-10-16T09:03:49;1.83;;;1.52;;
34960;SDS011;30789;52.030;7.110;2022-10-16T09:06:26;4.18;;;1.58;;
34960;SDS011;30789;52.030;7.110;2022-10-16T09:09:09;1.75;;;1.08;;
34960;SDS011;30789;52.030;7.110;2022-10-16T09:11:46;2.45;;;1.30;;
34960;SDS011;30789;52.030;7.110;2022-10-16T09:14:23;2.05;;;1.58;;
34960;SDS011;30789;52.030;7.110;2022-10-16T09:17:07;2.60;;;1.33;;
34960;SDS011;30789;52.030;7.110;2022-10-16T09:19:48;2.20;;;1.05;;
34960;SDS011;30789;52.030;7.110;2022-10-16T09:22:19;3.58;;;1.33;;
34960;SDS011;30789;52.030;7.110;2022-10-16T09:24:53;3.53;;;1.27;;
34960;SDS011;30789;52.030;7.110;2022-10-16T09:27:20;3.17;;;1.27;;
34960;SDS011;30789;52.030;7.110;2022-10-16T09:29:47;3.42;;;1.55;;
34960;SDS011;30789;52.030;7.110;2022-10-16T09:32:15;3.78;;;1.50;;
34960;SDS011;30789;52.030;7.110;2022-10-16T09:34:49;5.50;;;2.03;;
34960;SDS011;30789;52.030;7.110;2022-10-16T09:37:19;4.90;;;2.42;;
34960;SDS011;30789;52.030;7.110;2022-10-16T09:39:48;4.53;;;2.70;;
34960;SDS011;30789;52.030;7.110;2022-10-16T09:42:17;6.25;;;3.40;;
34960;SDS011;30789;52.030;7.110;2022-10-16T09:44:47;8.70;;;3.45;;
34960;SDS011;30789;52.030;7.110;2022-10-16T09:47:17;6.65;;;4.18;;
34960;SDS011;30789;52.030;7.110;2022-10-16T09:49:50;10.90;;;5.15;;
34960;SDS011;30789;52.030;7.110;2022-10-16T09:52:18;10.85;;;4.53;;
34960;SDS011;30789;52.030;7.110;2022-10-16T09:54:49;7.38;;;4.53;;
34960;SDS011;30789;52.030;7.110;2022-10-16T09:57:16;5.73;;;3.70;;
34960;SDS011;30789;52.030;7.110;2022-10-16T09:59:45;5.55;;;3.58;;
34960;SDS011;30789;52.030;7.110;2022-10-16T10:02:13;6.63;;;3.20;;
34960;SDS011;30789;52.030;7.110;2022-10-16T10:04:44;6.22;;;3.33;;
34960;SDS011;30789;52.030;7.110;2022-10-16T10:07:16;4.32;;;2.53;;
34960;SDS011;30789;52.030;7.110;2022-10-16T10:09:45;6.80;;;2.58;;
34960;SDS011;30789;52.030;7.110;2022-10-16T10:12:19;6.45;;;2.67;;
34960;SDS011;30789;52.030;7.110;2022-10-16T10:14:48;5.82;;;2.42;;
34960;SDS011;30789;52.030;7.110;2022-10-16T10:17:17;3.85;;;2.10;;
34960;SDS011;30789;52.030;7.110;2022-10-16T10:19:50;3.13;;;1.90;;
34960;SDS011;30789;52.030;7.110;2022-10-16T10:22:20;3.90;;;1.73;;
34960;SDS011;30789;52.030;7.110;2022-10-16T10:24:56;7.03;;;1.73;;
34960;SDS011;30789;52.030;7.110;2022-10-16T10:27:29;2.83;;;1.60;;
34960;SDS011;30789;52.030;7.110;2022-10-16T10:30:03;2.65;;;1.60;;
34960;SDS011;30789;52.030;7.110;2022-10-16T10:32:41;4.28;;;1.60;;
34960;SDS011;30789;52.030;7.110;2022-10-16T10:35:17;3.60;;;1.88;;
34960;SDS011;30789;52.030;7.110;2022-10-16T10:37:51;1.77;;;1.08;;
34960;SDS011;30789;52.030;7.110;2022-10-16T10:40:34;2.20;;;1.17;;
34960;SDS011;30789;52.030;7.110;2022-10-16T10:43:11;2.40;;;1.20;;
34960;SDS011;30789;52.030;7.110;2022-10-16T10:45:50;3.08;;;1.13;;
34960;SDS011;30789;52.030;7.110;2022-10-16T10:48:27;2.95;;;0.88;;
34960;SDS011;30789;52.030;7.110;2022-10-16T10:51:14;3.05;;;1.02;;
34960;SDS011;30789;52.030;7.110;2022-10-16T10:53:50;1.20;;;0.85;;
34960;SDS011;30789;52.030;7.110;2022-10-16T10:56:30;3.13;;;0.90;;
34960;SDS011;30789;52.030;7.110;2022-10-16T11:02:02;2.72;;;0.85;;
34960;SDS011;30789;52.030;7.110;2022-10-16T11:04:41;2.83;;;1.15;;
34960;SDS011;30789;52.030;7.110;2022-10-16T11:09:50;2.13;;;0.93;;
34960;SDS011;30789;52.030;7.110;2022-10-16T11:12:20;3.53;;;1.23;;
34960;SDS011;30789;52.030;7.110;2022-10-16T11:14:53;2.05;;;0.65;;
34960;SDS011;30789;52.030;7.110;2022-10-16T11:17:25;7.80;;;1.30;;
34960;SDS011;30789;52.030;7.110;2022-10-16T11:19:56;1.88;;;0.90;;
34960;SDS011;30789;52.030;7.110;2022-10-16T11:22:29;6.30;;;1.13;;
34960;SDS011;30789;52.030;7.110;2022-10-16T11:25:00;4.95;;;0.90;;
34960;SDS011;30789;52.030;7.110;2022-10-16T11:27:38;4.78;;;1.30;;
34960;SDS011;30789;52.030;7.110;2022-10-16T11:30:12;5.55;;;1.20;;
34960;SDS011;30789;52.030;7.110;2022-10-16T11:32:45;2.53;;;0.88;;
34960;SDS011;30789;52.030;7.110;2022-10-16T11:35:19;5.22;;;0.70;;
34960;SDS011;30789;52.030;7.110;2022-10-16T11:37:52;4.18;;;0.85;;
34960;SDS011;30789;52.030;7.110;2022-10-16T11:40:24;2.67;;;0.80;;
34960;SDS011;30789;52.030;7.110;2022-10-16T11:42:56;5.68;;;1.20;;
34960;SDS011;30789;52.030;7.110;2022-10-16T11:45:29;3.58;;;0.77;;
34960;SDS011;30789;52.030;7.110;2022-10-16T11:48:02;5.47;;;1.75;;
34960;SDS011;30789;52.030;7.110;2022-10-16T11:50:35;4.32;;;1.23;;
34960;SDS011;30789;52.030;7.110;2022-10-16T11:53:11;5.07;;;1.63;;
34960;SDS011;30789;52.030;7.110;2022-10-16T11:55:43;3.70;;;0.90;;
34960;SDS011;30789;52.030;7.110;2022-10-16T11:58:13;4.78;;;1.75;;
34960;SDS011;30789;52.030;7.110;2022-10-16T12:00:50;4.80;;;1.52;;
34960;SDS011;30789;52.030;7.110;2022-10-16T12:03:24;4.60;;;1.85;;
34960;SDS011;30789;52.030;7.110;2022-10-16T12:05:57;4.60;;;1.17;;
34960;SDS011;30789;52.030;7.110;2022-10-16T12:08:34;5.80;;;1.33;;
34960;SDS011;30789;52.030;7.110;2022-10-16T12:11:08;2.90;;;1.00;;
34960;SDS011;30789;52.030;7.110;2022-10-16T12:13:36;4.43;;;1.05;;
34960;SDS011;30789;52.030;7.110;2022-10-16T12:16:05;3.50;;;1.08;;
34960;SDS011;30789;52.030;7.110;2022-10-16T12:18:32;4.78;;;0.82;;
34960;SDS011;30789;52.030;7.110;2022-10-16T12:20:59;3.90;;;0.95;;
34960;SDS011;30789;52.030;7.110;2022-10-16T12:23:30;6.53;;;0.93;;
34960;SDS011;30789;52.030;7.110;2022-10-16T12:25:59;5.40;;;0.77;;
34960;SDS011;30789;52.030;7.110;2022-10-16T12:28:27;6.28;;;1.20;;
34960;SDS011;30789;52.030;7.110;2022-10-16T12:30:56;4.15;;;1.02;;
34960;SDS011;30789;52.030;7.110;2022-10-16T12:33:25;4.60;;;1.05;;
34960;SDS011;30789;52.030;7.110;2022-10-16T12:35:52;6.85;;;1.10;;
34960;SDS011;30789;52.030;7.110;2022-10-16T12:38:20;4.13;;;1.10;;
34960;SDS011;30789;52.030;7.110;2022-10-16T12:40:57;4.82;;;1.33;;
34960;SDS011;30789;52.030;7.110;2022-10-16T12:43:34;6.07;;;1.10;;
34960;SDS011;30789;52.030;7.110;2022-10-16T12:46:04;3.55;;;1.00;;
34960;SDS011;30789;52.030;7.110;2022-10-16T12:48:46;4.15;;;1.05;;
34960;SDS011;30789;52.030;7.110;2022-10-16T12:51:21;3.67;;;1.00;;
34960;SDS011;30789;52.030;7.110;2022-10-16T12:53:57;2.88;;;1.05;;
34960;SDS011;30789;52.030;7.110;2022-10-16T12:56:26;3.67;;;0.85;;
34960;SDS011;30789;52.030;7.110;2022-10-16T12:59:09;6.75;;;1.33;;
34960;SDS011;30789;52.030;7.110;2022-10-16T13:01:49;5.50;;;1.15;;
34960;SDS011;30789;52.030;7.110;2022-10-16T13:10:15;4.30;;;0.98;;
34960;SDS011;30789;52.030;7.110;2022-10-16T13:15:52;3.05;;;1.10;;
34960;SDS011;30789;52.030;7.110;2022-10-16T13:18:29;7.28;;;1.50;;
34960;SDS011;30789;52.030;7.110;2022-10-16T13:21:09;3.45;;;0.88;;
34960;SDS011;30789;52.030;7.110;2022-10-16T13:23:46;7.22;;;1.35;;
34960;SDS011;30789;52.030;7.110;2022-10-16T13:26:21;5.00;;;1.23;;
34960;SDS011;30789;52.030;7.110;2022-10-16T13:28:59;6.30;;;0.95;;
34960;SDS011;30789;52.030;7.110;2022-10-16T13:33:55;5.13;;;0.93;;
34960;SDS011;30789;52.030;7.110;2022-10-16T13:36:24;2.67;;;0.88;;
34960;SDS011;30789;52.030;7.110;2022-10-16T13:38:59;2.90;;;1.02;;
34960;SDS011;30789;52.030;7.110;2022-10-16T13:41:32;2.83;;;1.05;;
34960;SDS011;30789;52.030;7.110;2022-10-16T13:44:00;4.05;;;1.17;;
34960;SDS011;30789;52.030;7.110;2022-10-16T13:46:27;5.53;;;1.67;;
34960;SDS011;30789;52.030;7.110;2022-10-16T13:48:58;3.42;;;1.30;;
34960;SDS011;30789;52.030;7.110;2022-10-16T13:51:25;3.70;;;1.02;;
34960;SDS011;30789;52.030;7.110;2022-10-16T13:53:54;3.53;;;1.08;;
34960;SDS011;30789;52.030;7.110;2022-10-16T13:56:21;5.22;;;1.50;;
34960;SDS011;30789;52.030;7.110;2022-10-16T13:58:57;6.22;;;1.70;;
34960;SDS011;30789;52.030;7.110;2022-10-16T14:01:26;6.25;;;1.92;;
34960;SDS011;30789;52.030;7.110;2022-10-16T14:04:00;3.47;;;1.70;;
34960;SDS011;30789;52.030;7.110;2022-10-16T14:06:29;6.82;;;1.48;;
34960;SDS011;30789;52.030;7.110;2022-10-16T14:08:58;4.40;;;1.13;;
34960;SDS011;30789;52.030;7.110;2022-10-16T14:11:27;2.30;;;1.00;;
34960;SDS011;30789;52.030;7.110;2022-10-16T14:13:54;3.17;;;1.05;;
34960;SDS011;30789;52.030;7.110;2022-10-16T14:16:23;5.63;;;1.10;;
34960;SDS011;30789;52.030;7.110;2022-10-16T14:18:54;4.55;;;1.25;;
34960;SDS011;30789;52.030;7.110;2022-10-16T14:21:23;7.35;;;1.25;;
34960;SDS011;30789;52.030;7.110;2022-10-16T14:23:51;4.40;;;1.20;;
34960;SDS011;30789;52.030;7.110;2022-10-16T14:26:19;3.30;;;2.00;;
34960;SDS011;30789;52.030;7.110;2022-10-16T14:28:48;4.68;;;1.05;;
34960;SDS011;30789;52.030;7.110;2022-10-16T14:31:29;2.67;;;1.20;;
34960;SDS011;30789;52.030;7.110;2022-10-16T14:33:57;1.85;;;0.85;;
34960;SDS011;30789;52.030;7.110;2022-10-16T14:36:24;3.83;;;1.33;;
34960;SDS011;30789;52.030;7.110;2022-10-16T14:38:55;4.70;;;1.42;;
34960;SDS011;30789;52.030;7.110;2022-10-16T14:41:25;4.20;;;1.23;;
34960;SDS011;30789;52.030;7.110;2022-10-16T14:43:52;3.78;;;1.30;;
34960;SDS011;30789;52.030;7.110;2022-10-16T14:46:21;3.42;;;1.77;;
34960;SDS011;30789;52.030;7.110;2022-10-16T14:48:56;5.60;;;2.00;;
34960;SDS011;30789;52.030;7.110;2022-10-16T14:51:28;3.92;;;1.88;;
34960;SDS011;30789;52.030;7.110;2022-10-16T14:53:55;4.20;;;2.00;;
34960;SDS011;30789;52.030;7.110;2022-10-16T14:56:22;4.38;;;1.15;;
34960;SDS011;30789;52.030;7.110;2022-10-16T14:58:51;8.38;;;1.42;;
34960;SDS011;30789;52.030;7.110;2022-10-16T15:01:18;2.83;;;0.82;;
34960;SDS011;30789;52.030;7.110;2022-10-16T15:03:45;4.00;;;0.70;;
34960;SDS011;30789;52.030;7.110;2022-10-16T15:06:13;1.60;;;0.73;;
34960;SDS011;30789;52.030;7.110;2022-10-16T15:08:41;2.22;;;1.00;;
34960;SDS011;30789;52.030;7.110;2022-10-16T15:11:08;2.90;;;1.00;;
34960;SDS011;30789;52.030;7.110;2022-10-16T15:13:38;3.05;;;0.95;;
34960;SDS011;30789;52.030;7.110;2022-10-16T15:16:04;2.67;;;0.80;;
34960;SDS011;30789;52.030;7.110;2022-10-16T15:18:33;1.77;;;1.08;;
34960;SDS011;30789;52.030;7.110;2022-10-16T15:20:59;3.30;;;1.42;;